sensor_id;sensor_type;location;lat;lon;timestamp;temperature;humidity
26021;DHT22;13798;48.858;9.092;2023-11-19T00:02:21;205.10;2252.80
26021;DHT22;13798;48.858;9.092;2023-11-19T00:04:47;205.20;2252.80
26021;DHT22;13798;48.858;9.092;2023-11-19T00:07:12;205.10;2252.80
26021;DHT22;13798;48.858;9.092;2023-11-19T00:09:39;205.30;2252.80
26021;DHT22;13798;48.858;9.092;2023-11-19T00:12:05;205.30;2252.80
26021;DHT22;13798;48.858;9.092;2023-11-19T00:14:31;205.10;2252.80
26021;DHT22;13798;48.858;9.092;2023-11-19T00:16:57;205.10;2252.80
26021;DHT22;13798;48.858;9.092;2023-11-19T00:19:22;205.30;2252.80
26021;DHT22;13798;48.858;9.092;2023-11-19T00:21:48;205.30;2252.80
26021;DHT22;13798;48.858;9.092;2023-11-19T00:24:14;205.20;2252.80
26021;DHT22;13798;48.858;9.092;2023-11-19T00:26:42;205.20;2252.80
26021;DHT22;13798;48.858;9.092;2023-11-19T00:29:07;205.30;2252.80
26021;DHT22;13798;48.858;9.092;2023-11-19T00:31:33;205.30;2252.80
26021;DHT22;13798;48.858;9.092;2023-11-19T00:33:59;205.40;2252.80
26021;DHT22;13798;48.858;9.092;2023-11-19T00:36:24;205.40;2252.80
26021;DHT22;13798;48.858;9.092;2023-11-19T00:38:51;205.40;2252.80
26021;DHT22;13798;48.858;9.092;2023-11-19T00:41:18;205.50;2252.80
26021;DHT22;13798;48.858;9.092;2023-11-19T00:43:43;205.50;2252.80
26021;DHT22;13798;48.858;9.092;2023-11-19T00:46:09;205.50;2252.80
26021;DHT22;13798;48.858;9.092;2023-11-19T00:48:36;205.50;2252.80
26021;DHT22;13798;48.858;9.092;2023-11-19T00:51:02;205.50;2252.80
26021;DHT22;13798;48.858;9.092;2023-11-19T09:27:13;307.80;2304.00
26021;DHT22;13798;48.858;9.092;2023-11-19T09:29:38;308.00;2304.00
26021;DHT22;13798;48.858;9.092;2023-11-19T09:32:04;308.00;2099.20
26021;DHT22;13798;48.858;9.092;2023-11-19T09:39:40;308.10;2048.00
26021;DHT22;13798;48.858;9.092;2023-11-19T09:42:12;333.10;2329.60
26021;DHT22;13798;48.858;9.092;2023-11-19T09:44:38;333.00;2329.60
26021;DHT22;13798;48.858;9.092;2023-11-19T09:47:05;333.20;2329.60
26021;DHT22;13798;48.858;9.092;2023-11-19T09:49:32;333.40;2329.60
26021;DHT22;13798;48.858;9.092;2023-11-19T09:51:58;358.40;2329.60
26021;DHT22;13798;48.858;9.092;2023-11-19T09:54:24;358.60;2329.60
26021;DHT22;13798;48.858;9.092;2023-11-19T09:56:50;359.10;2329.60
26021;DHT22;13798;48.858;9.092;2023-11-19T09:59:16;359.20;2329.60
26021;DHT22;13798;48.858;9.092;2023-11-19T10:01:42;384.00;2329.60
26021;DHT22;13798;48.858;9.092;2023-11-19T10:04:09;359.30;2329.60
26021;DHT22;13798;48.858;9.092;2023-11-19T10:06:36;358.90;2329.60
26021;DHT22;13798;48.858;9.092;2023-11-19T10:09:02;359.10;2329.60
26021;DHT22;13798;48.858;9.092;2023-11-19T10:11:30;359.00;2329.60
26021;DHT22;13798;48.858;9.092;2023-11-19T10:13:55;359.00;2329.60
26021;DHT22;13798;48.858;9.092;2023-11-19T10:16:28;359.10;2329.60
26021;DHT22;13798;48.858;9.092;2023-11-19T10:18:55;359.30;2329.60
26021;DHT22;13798;48.858;9.092;2023-11-19T10:21:21;384.10;2329.60
26021;DHT22;13798;48.858;9.092;2023-11-19T10:23:48;359.10;2329.60
26021;DHT22;13798;48.858;9.092;2023-11-19T10:26:15;384.50;2329.60
26021;DHT22;13798;48.858;9.092;2023-11-19T10:28:41;384.90;2329.60
26021;DHT22;13798;48.858;9.092;2023-11-19T10:31:09;409.90;2355.20
26021;DHT22;13798;48.858;9.092;2023-11-19T10:33:35;384.50;2329.60
26021;DHT22;13798;48.858;9.092;2023-11-19T10:36:01;384.10;2329.60
26021;DHT22;13798;48.858;9.092;2023-11-19T10:38:26;384.60;2329.60
26021;DHT22;13798;48.858;9.092;2023-11-19T10:40:52;384.40;2329.60
26021;DHT22;13798;48.858;9.092;2023-11-19T10:43:20;384.40;2329.60
26021;DHT22;13798;48.858;9.092;2023-11-19T10:45:47;384.70;2329.60
26021;DHT22;13798;48.858;9.092;2023-11-19T10:48:13;409.60;2355.20
26021;DHT22;13798;48.858;9.092;2023-11-19T10:50:40;409.80;2355.20
26021;DHT22;13798;48.858;9.092;2023-11-19T10:53:07;409.70;2355.20
26021;DHT22;13798;48.858;9.092;2023-11-19T10:55:35;384.40;2329.60
26021;DHT22;13798;48.858;9.092;2023-11-19T10:58:05;384.00;2329.60
26021;DHT22;13798;48.858;9.092;2023-11-19T11:00:43;359.10;2329.60
26021;DHT22;13798;48.858;9.092;2023-11-19T11:03:17;384.10;2329.60
26021;DHT22;13798;48.858;9.092;2023-11-19T11:05:46;359.30;2329.60
26021;DHT22;13798;48.858;9.092;2023-11-19T11:08:13;359.30;2329.60
26021;DHT22;13798;48.858;9.092;2023-11-19T11:10:53;358.90;2329.60
26021;DHT22;13798;48.858;9.092;2023-11-19T11:13:19;359.10;2329.60
26021;DHT22;13798;48.858;9.092;2023-11-19T11:15:45;359.00;2329.60
26021;DHT22;13798;48.858;9.092;2023-11-19T11:18:12;358.60;2329.60
26021;DHT22;13798;48.858;9.092;2023-11-19T11:20:39;358.60;2329.60
26021;DHT22;13798;48.858;9.092;2023-11-19T12:33:09;384.50;2329.60
26021;DHT22;13798;48.858;9.092;2023-11-19T12:35:39;410.00;2355.20
26021;DHT22;13798;48.858;9.092;2023-11-19T12:38:05;461.70;2380.80
26021;DHT22;13798;48.858;9.092;2023-11-19T12:40:30;537.80;2406.40
26021;DHT22;13798;48.858;9.092;2023-11-19T12:42:56;461.10;2380.80
26021;DHT22;13798;48.858;9.092;2023-11-19T12:45:22;487.20;2380.80
26021;DHT22;13798;48.858;9.092;2023-11-19T12:47:49;486.50;2380.80
26021;DHT22;13798;48.858;9.092;2023-11-19T12:50:17;538.30;2406.40
26021;DHT22;13798;48.858;9.092;2023-11-19T12:52:57;512.80;2380.80
26021;DHT22;13798;48.858;9.092;2023-11-19T12:55:30;538.20;2406.40
26021;DHT22;13798;48.858;9.092;2023-11-19T12:57:57;563.40;2432.00
26021;DHT22;13798;48.858;9.092;2023-11-19T13:00:25;461.70;2380.80
26021;DHT22;13798;48.858;9.092;2023-11-19T13:02:58;563.20;2432.00
26021;DHT22;13798;48.858;9.092;2023-11-19T13:05:28;563.90;2432.00
26021;DHT22;13798;48.858;9.092;2023-11-19T13:10:26;486.90;2380.80
26021;DHT22;13798;48.858;9.092;2023-11-19T13:13:08;563.60;2432.00
26021;DHT22;13798;48.858;9.092;2023-11-19T13:15:36;564.00;2432.00
26021;DHT22;13798;48.858;9.092;2023-11-19T13:18:02;563.70;2432.00
26021;DHT22;13798;48.858;9.092;2023-11-19T13:20:28;563.60;2432.00
26021;DHT22;13798;48.858;9.092;2023-11-19T13:22:58;487.30;2380.80
26021;DHT22;13798;48.858;9.092;2023-11-19T13:25:25;461.50;2380.80
26021;DHT22;13798;48.858;9.092;2023-11-19T13:27:51;461.70;2380.80
26021;DHT22;13798;48.858;9.092;2023-11-19T13:30:16;461.00;2380.80
26021;DHT22;13798;48.858;9.092;2023-11-19T13:32:42;435.30;2355.20
26021;DHT22;13798;48.858;9.092;2023-11-19T13:35:09;435.40;2355.20
26021;DHT22;13798;48.858;9.092;2023-11-19T13:37:35;435.40;2355.20
26021;DHT22;13798;48.858;9.092;2023-11-19T13:40:01;435.80;2355.20
26021;DHT22;13798;48.858;9.092;2023-11-19T13:42:26;410.50;2355.20
26021;DHT22;13798;48.858;9.092;2023-11-19T13:44:52;410.00;2355.20
26021;DHT22;13798;48.858;9.092;2023-11-19T13:47:18;461.40;2380.80
26021;DHT22;13798;48.858;9.092;2023-11-19T13:49:44;461.20;2380.80
26021;DHT22;13798;48.858;9.092;2023-11-19T13:52:10;461.70;2380.80
26021;DHT22;13798;48.858;9.092;2023-11-19T13:54:37;461.40;2380.80
26021;DHT22;13798;48.858;9.092;2023-11-19T13:57:03;486.50;2380.80
26021;DHT22;13798;48.858;9.092;2023-11-19T13:59:32;486.70;2380.80
26021;DHT22;13798;48.858;9.092;2023-11-19T14:01:58;460.80;2380.80
26021;DHT22;13798;48.858;9.092;2023-11-19T14:04:24;461.40;2380.80
26021;DHT22;13798;48.858;9.092;2023-11-19T14:06:50;486.40;2380.80
26021;DHT22;13798;48.858;9.092;2023-11-19T14:09:16;461.10;2380.80
26021;DHT22;13798;48.858;9.092;2023-11-19T14:11:41;460.90;2380.80
26021;DHT22;13798;48.858;9.092;2023-11-19T14:14:07;461.50;2380.80
26021;DHT22;13798;48.858;9.092;2023-11-19T14:16:33;460.90;2380.80
26021;DHT22;13798;48.858;9.092;2023-11-19T14:18:59;461.70;2380.80
26021;DHT22;13798;48.858;9.092;2023-11-19T14:21:25;486.40;2380.80
26021;DHT22;13798;48.858;9.092;2023-11-19T14:23:52;486.80;2380.80
26021;DHT22;13798;48.858;9.092;2023-11-19T14:26:17;486.40;2380.80
26021;DHT22;13798;48.858;9.092;2023-11-19T14:28:43;486.50;2380.80
26021;DHT22;13798;48.858;9.092;2023-11-19T14:31:09;461.70;2380.80
26021;DHT22;13798;48.858;9.092;2023-11-19T14:33:34;486.50;2380.80
26021;DHT22;13798;48.858;9.092;2023-11-19T14:36:01;461.20;2380.80
26021;DHT22;13798;48.858;9.092;2023-11-19T14:38:30;461.40;2380.80
26021;DHT22;13798;48.858;9.092;2023-11-19T14:40:56;461.10;2380.80
26021;DHT22;13798;48.858;9.092;2023-11-19T14:43:21;460.80;2380.80
26021;DHT22;13798;48.858;9.092;2023-11-19T14:45:47;461.00;2380.80
26021;DHT22;13798;48.858;9.092;2023-11-19T14:48:12;461.60;2380.80
26021;DHT22;13798;48.858;9.092;2023-11-19T14:50:38;461.10;2380.80
26021;DHT22;13798;48.858;9.092;2023-11-19T14:53:03;486.40;2380.80
26021;DHT22;13798;48.858;9.092;2023-11-19T14:55:29;486.90;2380.80
26021;DHT22;13798;48.858;9.092;2023-11-19T14:57:54;486.70;2380.80
26021;DHT22;13798;48.858;9.092;2023-11-19T15:00:21;486.60;2380.80
26021;DHT22;13798;48.858;9.092;2023-11-19T15:02:47;486.40;2380.80
26021;DHT22;13798;48.858;9.092;2023-11-19T15:05:12;486.50;2380.80
26021;DHT22;13798;48.858;9.092;2023-11-19T15:07:39;461.10;2380.80
26021;DHT22;13798;48.858;9.092;2023-11-19T15:10:06;460.80;2380.80
26021;DHT22;13798;48.858;9.092;2023-11-19T15:12:39;435.60;2355.20
26021;DHT22;13798;48.858;9.092;2023-11-19T15:15:09;435.20;2355.20
26021;DHT22;13798;48.858;9.092;2023-11-19T15:17:35;384.90;2329.60
26021;DHT22;13798;48.858;9.092;2023-11-19T15:20:04;384.10;2329.60
26021;DHT22;13798;48.858;9.092;2023-11-19T15:22:30;359.10;2329.60
26021;DHT22;13798;48.858;9.092;2023-11-19T15:24:56;359.00;2329.60
26021;DHT22;13798;48.858;9.092;2023-11-19T15:27:22;358.80;2329.60
26021;DHT22;13798;48.858;9.092;2023-11-19T15:29:47;358.70;2329.60
26021;DHT22;13798;48.858;9.092;2023-11-19T15:32:14;358.60;2329.60
26021;DHT22;13798;48.858;9.092;2023-11-19T15:34:39;333.70;2329.60
26021;DHT22;13798;48.858;9.092;2023-11-19T15:37:07;358.40;2329.60
26021;DHT22;13798;48.858;9.092;2023-11-19T15:39:33;333.70;2329.60
26021;DHT22;13798;48.858;9.092;2023-11-19T15:42:01;333.60;2329.60
26021;DHT22;13798;48.858;9.092;2023-11-19T15:44:26;333.50;2329.60
26021;DHT22;13798;48.858;9.092;2023-11-19T15:46:53;333.30;2329.60
26021;DHT22;13798;48.858;9.092;2023-11-19T15:49:19;333.10;2329.60
26021;DHT22;13798;48.858;9.092;2023-11-19T15:51:44;333.20;2329.60
26021;DHT22;13798;48.858;9.092;2023-11-19T15:54:11;333.40;2329.60
26021;DHT22;13798;48.858;9.092;2023-11-19T15:56:36;332.90;2329.60
26021;DHT22;13798;48.858;9.092;2023-11-19T15:59:02;333.20;2329.60
26021;DHT22;13798;48.858;9.092;2023-11-19T16:01:29;333.00;2329.60
26021;DHT22;13798;48.858;9.092;2023-11-19T16:03:56;333.00;2329.60
26021;DHT22;13798;48.858;9.092;2023-11-19T16:06:21;333.00;2329.60
26021;DHT22;13798;48.858;9.092;2023-11-19T16:08:48;308.10;2304.00
26021;DHT22;13798;48.858;9.092;2023-11-19T16:11:13;308.00;2304.00
26021;DHT22;13798;48.858;9.092;2023-11-19T16:13:39;307.90;2304.00
26021;DHT22;13798;48.858;9.092;2023-11-19T16:16:05;307.90;2304.00
26021;DHT22;13798;48.858;9.092;2023-11-19T16:18:30;308.00;2304.00
26021;DHT22;13798;48.858;9.092;2023-11-19T16:20:57;308.10;2304.00
26021;DHT22;13798;48.858;9.092;2023-11-19T16:23:23;308.00;2304.00
26021;DHT22;13798;48.858;9.092;2023-11-19T16:25:48;307.80;2304.00
26021;DHT22;13798;48.858;9.092;2023-11-19T16:28:15;307.70;2304.00
26021;DHT22;13798;48.858;9.092;2023-11-19T16:30:42;307.70;2304.00
26021;DHT22;13798;48.858;9.092;2023-11-19T16:33:08;307.40;2304.00
26021;DHT22;13798;48.858;9.092;2023-11-19T16:35:34;307.60;2304.00
26021;DHT22;13798;48.858;9.092;2023-11-19T16:38:00;307.50;2304.00
26021;DHT22;13798;48.858;9.092;2023-11-19T16:40:26;307.80;2304.00
26021;DHT22;13798;48.858;9.092;2023-11-19T16:42:52;307.60;2304.00
26021;DHT22;13798;48.858;9.092;2023-11-19T16:45:17;307.50;2304.00
26021;DHT22;13798;48.858;9.092;2023-11-19T16:47:43;307.30;2304.00
26021;DHT22;13798;48.858;9.092;2023-11-19T16:50:11;307.40;2304.00
26021;DHT22;13798;48.858;9.092;2023-11-19T16:52:46;282.50;2278.40
26021;DHT22;13798;48.858;9.092;2023-11-19T16:55:12;282.50;2278.40
26021;DHT22;13798;48.858;9.092;2023-11-19T16:57:44;282.40;2278.40
26021;DHT22;13798;48.858;9.092;2023-11-19T17:00:10;282.30;2278.40
26021;DHT22;13798;48.858;9.092;2023-11-19T17:02:40;282.30;2278.40
26021;DHT22;13798;48.858;9.092;2023-11-19T17:05:08;282.20;2278.40
26021;DHT22;13798;48.858;9.092;2023-11-19T17:07:34;281.80;2278.40
26021;DHT22;13798;48.858;9.092;2023-11-19T17:10:00;282.00;2278.40
26021;DHT22;13798;48.858;9.092;2023-11-19T17:12:25;282.00;2278.40
26021;DHT22;13798;48.858;9.092;2023-11-19T17:14:51;282.10;2278.40
26021;DHT22;13798;48.858;9.092;2023-11-19T17:17:18;282.00;2278.40
26021;DHT22;13798;48.858;9.092;2023-11-19T17:19:43;281.90;2278.40
26021;DHT22;13798;48.858;9.092;2023-11-19T17:22:09;281.90;2278.40
26021;DHT22;13798;48.858;9.092;2023-11-19T17:24:34;282.00;2278.40
26021;DHT22;13798;48.858;9.092;2023-11-19T17:27:00;281.90;2278.40
26021;DHT22;13798;48.858;9.092;2023-11-19T17:29:25;281.80;2278.40
26021;DHT22;13798;48.858;9.092;2023-11-19T17:31:51;281.90;2278.40
26021;DHT22;13798;48.858;9.092;2023-11-19T17:34:16;282.00;2278.40
26021;DHT22;13798;48.858;9.092;2023-11-19T17:36:43;281.90;2278.40
26021;DHT22;13798;48.858;9.092;2023-11-19T17:39:09;281.90;2278.40
26021;DHT22;13798;48.858;9.092;2023-11-19T17:41:34;281.80;2278.40
26021;DHT22;13798;48.858;9.092;2023-11-19T17:44:03;282.00;2278.40
26021;DHT22;13798;48.858;9.092;2023-11-19T17:46:28;281.80;2278.40
26021;DHT22;13798;48.858;9.092;2023-11-19T17:48:54;281.70;2278.40
26021;DHT22;13798;48.858;9.092;2023-11-19T17:51:19;281.80;2278.40
26021;DHT22;13798;48.858;9.092;2023-11-19T17:53:45;281.80;2278.40
26021;DHT22;13798;48.858;9.092;2023-11-19T17:56:11;281.80;2278.40
26021;DHT22;13798;48.858;9.092;2023-11-19T17:58:37;281.80;2278.40
26021;DHT22;13798;48.858;9.092;2023-11-19T18:01:03;281.80;2278.40
26021;DHT22;13798;48.858;9.092;2023-11-19T18:03:29;282.00;2278.40
26021;DHT22;13798;48.858;9.092;2023-11-19T18:05:57;282.00;2278.40
26021;DHT22;13798;48.858;9.092;2023-11-19T18:08:23;282.00;2278.40
26021;DHT22;13798;48.858;9.092;2023-11-19T18:10:48;282.10;2278.40
26021;DHT22;13798;48.858;9.092;2023-11-19T18:13:14;282.20;2278.40
26021;DHT22;13798;48.858;9.092;2023-11-19T18:15:41;282.50;2278.40
26021;DHT22;13798;48.858;9.092;2023-11-19T18:18:07;307.30;2304.00
26021;DHT22;13798;48.858;9.092;2023-11-19T18:20:34;282.50;2278.40
26021;DHT22;13798;48.858;9.092;2023-11-19T18:23:00;307.30;2304.00
26021;DHT22;13798;48.858;9.092;2023-11-19T18:25:26;307.40;2304.00
26021;DHT22;13798;48.858;9.092;2023-11-19T18:27:51;307.50;2304.00
26021;DHT22;13798;48.858;9.092;2023-11-19T18:30:17;307.70;2304.00
26021;DHT22;13798;48.858;9.092;2023-11-19T18:32:43;307.40;2304.00
26021;DHT22;13798;48.858;9.092;2023-11-19T18:56:50;307.20;2304.00
26021;DHT22;13798;48.858;9.092;2023-11-19T18:59:18;282.40;2278.40
26021;DHT22;13798;48.858;9.092;2023-11-19T19:01:45;282.50;2278.40
26021;DHT22;13798;48.858;9.092;2023-11-19T19:04:10;282.30;2278.40
26021;DHT22;13798;48.858;9.092;2023-11-19T19:06:36;282.30;2278.40
26021;DHT22;13798;48.858;9.092;2023-11-19T19:09:06;282.20;2278.40
26021;DHT22;13798;48.858;9.092;2023-11-19T19:11:31;282.00;2278.40
26021;DHT22;13798;48.858;9.092;2023-11-19T19:14:01;282.10;1920.00
26021;DHT22;13798;48.858;9.092;2023-11-19T19:16:27;282.00;1971.20
26021;DHT22;13798;48.858;9.092;2023-11-19T19:18:52;281.90;1996.80
26021;DHT22;13798;48.858;9.092;2023-11-19T19:21:20;281.80;1971.20
26021;DHT22;13798;48.858;9.092;2023-11-19T19:23:46;281.90;2099.20
26021;DHT22;13798;48.858;9.092;2023-11-19T19:26:12;281.80;2150.40
26021;DHT22;13798;48.858;9.092;2023-11-19T19:28:37;281.80;2201.60
26021;DHT22;13798;48.858;9.092;2023-11-19T19:31:07;281.60;2278.40
26021;DHT22;13798;48.858;9.092;2023-11-19T19:33:32;281.60;2278.40
26021;DHT22;13798;48.858;9.092;2023-11-19T19:35:58;281.60;2278.40
26021;DHT22;13798;48.858;9.092;2023-11-19T19:38:24;256.90;2252.80
26021;DHT22;13798;48.858;9.092;2023-11-19T19:40:50;256.90;2252.80
26021;DHT22;13798;48.858;9.092;2023-11-19T19:43:16;281.60;2278.40
26021;DHT22;13798;48.858;9.092;2023-11-19T19:45:41;256.90;2252.80
26021;DHT22;13798;48.858;9.092;2023-11-19T19:48:08;256.90;2227.20
26021;DHT22;13798;48.858;9.092;2023-11-19T19:50:33;256.90;2073.60
26021;DHT22;13798;48.858;9.092;2023-11-19T19:52:59;281.60;2278.40
26021;DHT22;13798;48.858;9.092;2023-11-19T19:55:24;281.80;2278.40
26021;DHT22;13798;48.858;9.092;2023-11-19T19:57:50;281.80;2278.40
26021;DHT22;13798;48.858;9.092;2023-11-19T20:00:16;256.90;1945.60
26021;DHT22;13798;48.858;9.092;2023-11-19T20:02:42;256.90;1945.60
26021;DHT22;13798;48.858;9.092;2023-11-19T20:05:08;281.60;2278.40
26021;DHT22;13798;48.858;9.092;2023-11-19T20:07:39;256.90;2252.80
26021;DHT22;13798;48.858;9.092;2023-11-19T20:10:05;256.90;2252.80
26021;DHT22;13798;48.858;9.092;2023-11-19T20:12:31;256.90;2252.80
26021;DHT22;13798;48.858;9.092;2023-11-19T20:14:57;256.80;2252.80
26021;DHT22;13798;48.858;9.092;2023-11-19T20:17:26;256.60;2252.80
26021;DHT22;13798;48.858;9.092;2023-11-19T20:19:52;256.90;2252.80
26021;DHT22;13798;48.858;9.092;2023-11-19T20:22:17;256.90;2252.80
26021;DHT22;13798;48.858;9.092;2023-11-19T20:24:43;256.80;2252.80
26021;DHT22;13798;48.858;9.092;2023-11-19T20:27:08;256.90;2252.80
26021;DHT22;13798;48.858;9.092;2023-11-19T20:29:40;256.70;2252.80
26021;DHT22;13798;48.858;9.092;2023-11-19T20:32:06;256.80;2252.80
26021;DHT22;13798;48.858;9.092;2023-11-19T20:34:32;256.70;2252.80
26021;DHT22;13798;48.858;9.092;2023-11-19T20:36:57;256.80;2252.80
26021;DHT22;13798;48.858;9.092;2023-11-19T20:39:23;256.70;2252.80
26021;DHT22;13798;48.858;9.092;2023-11-19T20:41:50;256.70;2252.80
26021;DHT22;13798;48.858;9.092;2023-11-19T20:44:16;256.40;2252.80
26021;DHT22;13798;48.858;9.092;2023-11-19T20:46:41;256.60;2252.80
26021;DHT22;13798;48.858;9.092;2023-11-19T20:49:07;256.70;2252.80
26021;DHT22;13798;48.858;9.092;2023-11-19T20:51:32;256.50;2252.80
26021;DHT22;13798;48.858;9.092;2023-11-19T20:53:59;256.50;2252.80
26021;DHT22;13798;48.858;9.092;2023-11-19T20:56:24;256.70;2252.80
